FDX1123 KEWR-KAFW
Flight info
| Callsign | FDX1123 |
|---|---|
| Flight time | 3h 24m |
| Altitude | 32000 |
| Route | NEWEL J60 DANNR RAV J64 EWC TORRR BVT STL RZC AXXEE TRUUK3 |
| Aircraft | B77L/H-SDE1E2E3FGHIJ2J3J4J5M1RWXY/LB1D1 |
Departure
| Time | 2026-05-08 01:45 |
|---|---|
| Airport | Newark Liberty International Airport (KEWR) |
Arrival
| Time | 2026-05-08 05:09 |
|---|---|
| Airport | Perot Field/Fort Worth Alliance Airport (KAFW) |
| Time | Latitude | Longitude | Altitude | Speed | Heading |
|---|---|---|---|---|---|
| 2026-05-08 01:10 | 40.67836 | -74.18151 | 27 ft | 0 kts | 115° |
| 2026-05-08 01:31 | 40.67836 | -74.18152 | 27 ft | 1 kts | 115° |
| 2026-05-08 01:32 | 40.67847 | -74.18180 | 27 ft | 4 kts | 115° |
| 2026-05-08 01:32 | 40.67855 | -74.18202 | 27 ft | 4 kts | 153° |
| 2026-05-08 01:32 | 40.67875 | -74.18201 | 25 ft | 3 kts | 206° |
| 2026-05-08 01:32 | 40.67898 | -74.18187 | 25 ft | 2 kts | 206° |
| 2026-05-08 01:33 | 40.67899 | -74.18186 | 27 ft | 0 kts | 206° |
| 2026-05-08 01:39 | 40.67895 | -74.18189 | 27 ft | 2 kts | 206° |
| 2026-05-08 01:40 | 40.67875 | -74.18202 | 27 ft | 4 kts | 206° |
| 2026-05-08 01:40 | 40.67851 | -74.18217 | 27 ft | 5 kts | 206° |
| 2026-05-08 01:40 | 40.67811 | -74.18243 | 27 ft | 7 kts | 206° |
| 2026-05-08 01:40 | 40.67765 | -74.18271 | 27 ft | 7 kts | 197° |
| 2026-05-08 01:41 | 40.67722 | -74.18245 | 27 ft | 7 kts | 123° |
| 2026-05-08 01:41 | 40.67698 | -74.18185 | 27 ft | 7 kts | 117° |
| 2026-05-08 01:41 | 40.67664 | -74.18136 | 27 ft | 7 kts | 143° |
| 2026-05-08 01:41 | 40.67627 | -74.18089 | 27 ft | 7 kts | 131° |
| 2026-05-08 01:42 | 40.67606 | -74.18057 | 27 ft | 0 kts | 130° |
| 2026-05-08 01:42 | 40.67598 | -74.18044 | 27 ft | 5 kts | 129° |
| 2026-05-08 01:43 | 40.67569 | -74.17994 | 27 ft | 7 kts | 123° |
| 2026-05-08 01:43 | 40.67562 | -74.17935 | 27 ft | 7 kts | 60° |
| 2026-05-08 01:43 | 40.67582 | -74.17919 | 27 ft | 0 kts | 27° |
| 2026-05-08 01:44 | 40.67684 | -74.17853 | 29 ft | 43 kts | 25° |
| 2026-05-08 01:44 | 40.68167 | -74.17546 | 30 ft | 108 kts | 26° |
| 2026-05-08 01:44 | 40.69014 | -74.17008 | 27 ft | 159 kts | 25° |
| 2026-05-08 01:45 | 40.70060 | -74.16361 | 397 ft | 164 kts | 25° |
| 2026-05-08 01:45 | 40.71053 | -74.15629 | 902 ft | 165 kts | 39° |
| 2026-05-08 01:45 | 40.71918 | -74.14572 | 1279 ft | 173 kts | 42° |
| 2026-05-08 01:45 | 40.72813 | -74.13465 | 1705 ft | 180 kts | 42° |
| 2026-05-08 01:46 | 40.73781 | -74.12274 | 1957 ft | 200 kts | 42° |
| 2026-05-08 01:46 | 40.74853 | -74.10978 | 2218 ft | 220 kts | 40° |
| 2026-05-08 01:46 | 40.76247 | -74.09972 | 2327 ft | 242 kts | 9° |
| 2026-05-08 01:46 | 40.77937 | -74.10227 | 2769 ft | 254 kts | 334° |
| 2026-05-08 01:47 | 40.79265 | -74.11724 | 3423 ft | 259 kts | 300° |
| 2026-05-08 01:47 | 40.80001 | -74.13914 | 3969 ft | 264 kts | 289° |
| 2026-05-08 01:47 | 40.80429 | -74.16235 | 4826 ft | 261 kts | 279° |
| 2026-05-08 01:48 | 40.80966 | -74.21027 | 6418 ft | 262 kts | 278° |
| 2026-05-08 01:48 | 40.81261 | -74.23403 | 7195 ft | 262 kts | 279° |
| 2026-05-08 01:48 | 40.81580 | -74.25775 | 7991 ft | 262 kts | 279° |
| 2026-05-08 01:48 | 40.81897 | -74.28136 | 8807 ft | 260 kts | 279° |
| 2026-05-08 01:49 | 40.82202 | -74.30487 | 9646 ft | 260 kts | 279° |
| 2026-05-08 01:49 | 40.82493 | -74.32835 | 10348 ft | 260 kts | 278° |
| 2026-05-08 01:49 | 40.82781 | -74.35264 | 10688 ft | 278 kts | 278° |
| 2026-05-08 01:49 | 40.83061 | -74.37890 | 10898 ft | 299 kts | 277° |
| 2026-05-08 01:50 | 40.83354 | -74.40709 | 11148 ft | 321 kts | 276° |
| 2026-05-08 01:50 | 40.83666 | -74.43693 | 11692 ft | 331 kts | 277° |
| 2026-05-08 01:50 | 40.83982 | -74.46716 | 12578 ft | 335 kts | 276° |
| 2026-05-08 01:50 | 40.84306 | -74.49780 | 13374 ft | 340 kts | 277° |
| 2026-05-08 01:51 | 40.84697 | -74.52880 | 14122 ft | 344 kts | 277° |
| 2026-05-08 01:51 | 40.85114 | -74.56010 | 14866 ft | 348 kts | 277° |
| 2026-05-08 01:51 | 40.85525 | -74.59168 | 15709 ft | 349 kts | 276° |
| 2026-05-08 01:51 | 40.85917 | -74.62343 | 16519 ft | 352 kts | 275° |
| 2026-05-08 01:52 | 40.86298 | -74.65518 | 17021 ft | 354 kts | 275° |
| 2026-05-08 01:52 | 40.86678 | -74.68748 | 17000 ft | 354 kts | 274° |
| 2026-05-08 01:52 | 40.87053 | -74.71969 | 17001 ft | 355 kts | 274° |
| 2026-05-08 01:52 | 40.87427 | -74.75198 | 17003 ft | 356 kts | 274° |
| 2026-05-08 01:53 | 40.87801 | -74.78431 | 17005 ft | 356 kts | 274° |
| 2026-05-08 01:53 | 40.88174 | -74.81661 | 16999 ft | 356 kts | 274° |
| 2026-05-08 01:53 | 40.88546 | -74.84894 | 16987 ft | 356 kts | 274° |
| 2026-05-08 01:53 | 40.88916 | -74.88119 | 16993 ft | 355 kts | 274° |
| 2026-05-08 01:54 | 40.89287 | -74.91358 | 16986 ft | 355 kts | 274° |
| 2026-05-08 01:54 | 40.89656 | -74.94589 | 16985 ft | 355 kts | 274° |
| 2026-05-08 01:54 | 40.90024 | -74.97815 | 16995 ft | 355 kts | 274° |
| 2026-05-08 01:54 | 40.90390 | -75.01044 | 16988 ft | 355 kts | 274° |
| 2026-05-08 01:55 | 40.90758 | -75.04288 | 17137 ft | 360 kts | 274° |
| 2026-05-08 01:55 | 40.91129 | -75.07568 | 17836 ft | 360 kts | 274° |
| 2026-05-08 01:55 | 40.91497 | -75.10815 | 18636 ft | 356 kts | 273° |
| 2026-05-08 01:55 | 40.91742 | -75.14048 | 19123 ft | 353 kts | 266° |
| 2026-05-08 01:56 | 40.91620 | -75.17259 | 19568 ft | 355 kts | 261° |
| 2026-05-08 01:56 | 40.91295 | -75.20490 | 20097 ft | 355 kts | 258° |
| 2026-05-08 01:56 | 40.90703 | -75.23651 | 20625 ft | 354 kts | 252° |
| 2026-05-08 01:56 | 40.89949 | -75.26758 | 21120 ft | 356 kts | 251° |
| 2026-05-08 01:57 | 40.89191 | -75.29880 | 21588 ft | 358 kts | 252° |
| 2026-05-08 01:57 | 40.88436 | -75.33030 | 22093 ft | 360 kts | 252° |
| 2026-05-08 01:57 | 40.87681 | -75.36200 | 22571 ft | 363 kts | 252° |
| 2026-05-08 01:57 | 40.86924 | -75.39387 | 23042 ft | 364 kts | 252° |
| 2026-05-08 01:58 | 40.86164 | -75.42592 | 23527 ft | 366 kts | 252° |
| 2026-05-08 01:58 | 40.85403 | -75.45807 | 24041 ft | 365 kts | 252° |
| 2026-05-08 01:58 | 40.84647 | -75.49007 | 24373 ft | 367 kts | 253° |
| 2026-05-08 01:58 | 40.84142 | -75.51145 | 24510 ft | 371 kts | 253° |
| 2026-05-08 01:59 | 40.83105 | -75.55519 | 24929 ft | 375 kts | 252° |
| 2026-05-08 01:59 | 40.82588 | -75.57698 | 25188 ft | 375 kts | 253° |
| 2026-05-08 01:59 | 40.81806 | -75.60989 | 25586 ft | 376 kts | 253° |
| 2026-05-08 01:59 | 40.81020 | -75.64288 | 25952 ft | 378 kts | 253° |
| 2026-05-08 02:00 | 40.80229 | -75.67604 | 26280 ft | 380 kts | 253° |
| 2026-05-08 02:00 | 40.79432 | -75.70940 | 26612 ft | 382 kts | 253° |
| 2026-05-08 02:00 | 40.78632 | -75.74291 | 26935 ft | 383 kts | 253° |
| 2026-05-08 02:00 | 40.77825 | -75.77659 | 27280 ft | 385 kts | 253° |
| 2026-05-08 02:01 | 40.77014 | -75.81033 | 27685 ft | 386 kts | 253° |
| 2026-05-08 02:01 | 40.76204 | -75.84402 | 28081 ft | 385 kts | 253° |
| 2026-05-08 02:01 | 40.75392 | -75.87777 | 28362 ft | 387 kts | 253° |
| 2026-05-08 02:01 | 40.74573 | -75.91179 | 28585 ft | 390 kts | 253° |
| 2026-05-08 02:02 | 40.73748 | -75.94601 | 28847 ft | 392 kts | 253° |
| 2026-05-08 02:02 | 40.72917 | -75.98035 | 29086 ft | 394 kts | 253° |
| 2026-05-08 02:02 | 40.72083 | -76.01481 | 29342 ft | 395 kts | 253° |
| 2026-05-08 02:02 | 40.71244 | -76.04940 | 29551 ft | 397 kts | 253° |
| 2026-05-08 02:03 | 40.70403 | -76.08407 | 29766 ft | 398 kts | 253° |
| 2026-05-08 02:03 | 40.69556 | -76.11888 | 29985 ft | 400 kts | 253° |
| 2026-05-08 02:03 | 40.68705 | -76.15387 | 30201 ft | 401 kts | 253° |
| 2026-05-08 02:03 | 40.67851 | -76.18884 | 30444 ft | 400 kts | 254° |
| 2026-05-08 02:04 | 40.66998 | -76.22376 | 30628 ft | 401 kts | 253° |
| 2026-05-08 02:04 | 40.66050 | -76.25838 | 30816 ft | 402 kts | 250° |
| 2026-05-08 02:04 | 40.64976 | -76.29243 | 31018 ft | 403 kts | 250° |
| 2026-05-08 02:04 | 40.63915 | -76.32601 | 31219 ft | 403 kts | 250° |
| 2026-05-08 02:05 | 40.62842 | -76.36004 | 31422 ft | 402 kts | 250° |
| 2026-05-08 02:05 | 40.61768 | -76.39415 | 31595 ft | 403 kts | 250° |
| 2026-05-08 02:05 | 40.60696 | -76.42818 | 31773 ft | 403 kts | 250° |
| 2026-05-08 02:05 | 40.59623 | -76.46224 | 31955 ft | 402 kts | 250° |
| 2026-05-08 02:06 | 40.58551 | -76.49623 | 32124 ft | 403 kts | 250° |
| 2026-05-08 02:06 | 40.57481 | -76.53033 | 32364 ft | 401 kts | 252° |
| 2026-05-08 02:06 | 40.56698 | -76.56531 | 32591 ft | 398 kts | 259° |
| 2026-05-08 02:06 | 40.56261 | -76.60120 | 32695 ft | 398 kts | 263° |
| 2026-05-08 02:07 | 40.55984 | -76.63738 | 32903 ft | 397 kts | 265° |
| 2026-05-08 02:07 | 40.55926 | -76.67370 | 33083 ft | 398 kts | 272° |
| 2026-05-08 02:07 | 40.56228 | -76.70995 | 33225 ft | 399 kts | 274° |
| 2026-05-08 02:07 | 40.56579 | -76.74621 | 33367 ft | 400 kts | 274° |
| 2026-05-08 02:08 | 40.56931 | -76.78244 | 33549 ft | 399 kts | 274° |
| 2026-05-08 02:08 | 40.57277 | -76.81869 | 33721 ft | 399 kts | 274° |
| 2026-05-08 02:08 | 40.57610 | -76.85453 | 33883 ft | 399 kts | 274° |
| 2026-05-08 02:08 | 40.57941 | -76.89076 | 34039 ft | 399 kts | 274° |
| 2026-05-08 02:09 | 40.58267 | -76.92699 | 34172 ft | 399 kts | 274° |
| 2026-05-08 02:09 | 40.58590 | -76.96325 | 34292 ft | 399 kts | 274° |
| 2026-05-08 02:09 | 40.58911 | -76.99949 | 34411 ft | 399 kts | 274° |
| 2026-05-08 02:09 | 40.59231 | -77.03578 | 34535 ft | 399 kts | 274° |
| 2026-05-08 02:10 | 40.59550 | -77.07202 | 34656 ft | 399 kts | 274° |
| 2026-05-08 02:10 | 40.59869 | -77.10834 | 34755 ft | 400 kts | 274° |
| 2026-05-08 02:10 | 40.60185 | -77.14465 | 34873 ft | 400 kts | 274° |
| 2026-05-08 02:10 | 40.60501 | -77.18098 | 34994 ft | 399 kts | 274° |
| 2026-05-08 02:11 | 40.60816 | -77.21729 | 35099 ft | 399 kts | 274° |
| 2026-05-08 02:11 | 40.61129 | -77.25360 | 35217 ft | 400 kts | 274° |
| 2026-05-08 02:11 | 40.61754 | -77.32643 | 35432 ft | 400 kts | 274° |
| 2026-05-08 02:12 | 40.62064 | -77.36269 | 35615 ft | 398 kts | 274° |
| 2026-05-08 02:12 | 40.62371 | -77.39868 | 35848 ft | 394 kts | 274° |
| 2026-05-08 02:12 | 40.62969 | -77.46964 | 35919 ft | 386 kts | 274° |
| 2026-05-08 02:13 | 40.63547 | -77.53979 | 35916 ft | 385 kts | 274° |
| 2026-05-08 02:13 | 40.64120 | -77.60943 | 35933 ft | 385 kts | 274° |
| 2026-05-08 02:14 | 40.64695 | -77.67964 | 35919 ft | 386 kts | 274° |
| 2026-05-08 02:14 | 40.65267 | -77.74992 | 35921 ft | 386 kts | 274° |
| 2026-05-08 02:15 | 40.65836 | -77.82038 | 35929 ft | 387 kts | 274° |
| 2026-05-08 02:15 | 40.66401 | -77.89087 | 35924 ft | 387 kts | 274° |
| 2026-05-08 02:16 | 40.66962 | -77.96149 | 35942 ft | 388 kts | 274° |
| 2026-05-08 02:16 | 40.67514 | -78.03172 | 35943 ft | 388 kts | 274° |
| 2026-05-08 02:17 | 40.68066 | -78.10247 | 35930 ft | 388 kts | 274° |
| 2026-05-08 02:17 | 40.68614 | -78.17327 | 35936 ft | 389 kts | 274° |
| 2026-05-08 02:18 | 40.69159 | -78.24410 | 35942 ft | 389 kts | 274° |
| 2026-05-08 02:18 | 40.69699 | -78.31496 | 35933 ft | 388 kts | 274° |
| 2026-05-08 02:19 | 40.70234 | -78.38583 | 35936 ft | 388 kts | 274° |
| 2026-05-08 02:19 | 40.70764 | -78.45666 | 35938 ft | 389 kts | 274° |
| 2026-05-08 02:20 | 40.71291 | -78.52754 | 35945 ft | 388 kts | 274° |
| 2026-05-08 02:20 | 40.71813 | -78.59839 | 35927 ft | 387 kts | 274° |
| 2026-05-08 02:21 | 40.72071 | -78.63356 | 35721 ft | 386 kts | 274° |
| 2026-05-08 02:21 | 40.72328 | -78.66892 | 35320 ft | 389 kts | 274° |
| 2026-05-08 02:21 | 40.72587 | -78.70472 | 34846 ft | 395 kts | 274° |
| 2026-05-08 02:21 | 40.72847 | -78.74098 | 34413 ft | 399 kts | 274° |
| 2026-05-08 02:22 | 40.73109 | -78.77736 | 34081 ft | 399 kts | 274° |
| 2026-05-08 02:22 | 40.73370 | -78.81376 | 33992 ft | 398 kts | 274° |
| 2026-05-08 02:22 | 40.73888 | -78.88654 | 33983 ft | 399 kts | 274° |
| 2026-05-08 02:23 | 40.74403 | -78.95953 | 33981 ft | 400 kts | 274° |
| 2026-05-08 02:23 | 40.74911 | -79.03208 | 33985 ft | 399 kts | 274° |
| 2026-05-08 02:24 | 40.75415 | -79.10503 | 33989 ft | 398 kts | 275° |
| 2026-05-08 02:24 | 40.75912 | -79.17751 | 33985 ft | 395 kts | 275° |
| 2026-05-08 02:25 | 40.76402 | -79.24947 | 33984 ft | 392 kts | 275° |
| 2026-05-08 02:25 | 40.76883 | -79.32100 | 33979 ft | 390 kts | 275° |
| 2026-05-08 02:26 | 40.77355 | -79.39185 | 33978 ft | 389 kts | 275° |
| 2026-05-08 02:26 | 40.77826 | -79.46296 | 33999 ft | 389 kts | 275° |
| 2026-05-08 02:27 | 40.78290 | -79.53398 | 33987 ft | 388 kts | 275° |
| 2026-05-08 02:27 | 40.78749 | -79.60487 | 33987 ft | 387 kts | 275° |
| 2026-05-08 02:28 | 40.79203 | -79.67563 | 33992 ft | 386 kts | 274° |
| 2026-05-08 02:28 | 40.79653 | -79.74632 | 33991 ft | 386 kts | 274° |
| 2026-05-08 02:29 | 40.80098 | -79.81700 | 33991 ft | 386 kts | 274° |
| 2026-05-08 02:29 | 40.80537 | -79.88752 | 34003 ft | 385 kts | 274° |
| 2026-05-08 02:30 | 40.80972 | -79.95796 | 34005 ft | 385 kts | 274° |
| 2026-05-08 02:30 | 40.81399 | -80.02796 | 34012 ft | 385 kts | 274° |
| 2026-05-08 02:31 | 40.81824 | -80.09837 | 34016 ft | 385 kts | 274° |
| 2026-05-08 02:31 | 40.82248 | -80.16894 | 34030 ft | 386 kts | 274° |
| 2026-05-08 02:32 | 40.82517 | -80.23965 | 34023 ft | 386 kts | 270° |
| 2026-05-08 02:32 | 40.82496 | -80.31059 | 34020 ft | 386 kts | 270° |
| 2026-05-08 02:33 | 40.82470 | -80.38155 | 34028 ft | 386 kts | 270° |
| 2026-05-08 02:33 | 40.82444 | -80.45248 | 34015 ft | 387 kts | 270° |
| 2026-05-08 02:34 | 40.82415 | -80.52360 | 34019 ft | 387 kts | 270° |
| 2026-05-08 02:34 | 40.82382 | -80.59408 | 34018 ft | 386 kts | 270° |
| 2026-05-08 02:35 | 40.82345 | -80.66505 | 34033 ft | 386 kts | 270° |
| 2026-05-08 02:35 | 40.82304 | -80.73601 | 34033 ft | 386 kts | 270° |
| 2026-05-08 02:36 | 40.82259 | -80.80694 | 34027 ft | 387 kts | 270° |
| 2026-05-08 02:36 | 40.82209 | -80.87813 | 34027 ft | 387 kts | 270° |
| 2026-05-08 02:37 | 40.82155 | -80.94914 | 34010 ft | 387 kts | 270° |
| 2026-05-08 02:37 | 40.82096 | -81.02017 | 34019 ft | 387 kts | 270° |
| 2026-05-08 02:38 | 40.82033 | -81.09096 | 34015 ft | 388 kts | 270° |
| 2026-05-08 02:38 | 40.81966 | -81.16222 | 34007 ft | 389 kts | 270° |
| 2026-05-08 02:39 | 40.81894 | -81.23376 | 34001 ft | 389 kts | 270° |
| 2026-05-08 02:39 | 40.81817 | -81.30534 | 33985 ft | 390 kts | 270° |
| 2026-05-08 02:40 | 40.81736 | -81.37702 | 33995 ft | 391 kts | 270° |
| 2026-05-08 02:40 | 40.81650 | -81.44885 | 33997 ft | 391 kts | 270° |
| 2026-05-08 02:41 | 40.81560 | -81.52018 | 33991 ft | 390 kts | 270° |
| 2026-05-08 02:41 | 40.81465 | -81.59170 | 34008 ft | 389 kts | 270° |
| 2026-05-08 02:42 | 40.81367 | -81.66309 | 34008 ft | 389 kts | 270° |
| 2026-05-08 02:42 | 40.81264 | -81.73447 | 34005 ft | 389 kts | 270° |
| 2026-05-08 02:43 | 40.81157 | -81.80594 | 34009 ft | 389 kts | 270° |
| 2026-05-08 02:43 | 40.81045 | -81.87738 | 34009 ft | 390 kts | 270° |
| 2026-05-08 02:44 | 40.80929 | -81.94897 | 34005 ft | 390 kts | 270° |
| 2026-05-08 02:44 | 40.80808 | -82.02064 | 34009 ft | 390 kts | 270° |
| 2026-05-08 02:45 | 40.80682 | -82.09230 | 34013 ft | 390 kts | 270° |
| 2026-05-08 02:45 | 40.80553 | -82.16344 | 34004 ft | 391 kts | 270° |
| 2026-05-08 02:46 | 40.80419 | -82.23509 | 34008 ft | 391 kts | 270° |
| 2026-05-08 02:46 | 40.80280 | -82.30681 | 34010 ft | 390 kts | 270° |
| 2026-05-08 02:47 | 40.80160 | -82.36683 | 34013 ft | 390 kts | 270° |
| 2026-05-08 02:47 | 40.80014 | -82.43797 | 34000 ft | 391 kts | 270° |
| 2026-05-08 02:48 | 40.79863 | -82.50962 | 34028 ft | 391 kts | 270° |
| 2026-05-08 02:48 | 40.79707 | -82.58138 | 34019 ft | 391 kts | 270° |
| 2026-05-08 02:49 | 40.79547 | -82.65314 | 34019 ft | 391 kts | 270° |
| 2026-05-08 02:49 | 40.79381 | -82.72496 | 34020 ft | 392 kts | 270° |
| 2026-05-08 02:50 | 40.79212 | -82.79682 | 33995 ft | 392 kts | 270° |
| 2026-05-08 02:50 | 40.79038 | -82.86873 | 34018 ft | 392 kts | 270° |
| 2026-05-08 02:51 | 40.78859 | -82.94075 | 34021 ft | 393 kts | 270° |
| 2026-05-08 02:51 | 40.78675 | -83.01291 | 34026 ft | 394 kts | 270° |
| 2026-05-08 02:52 | 40.78486 | -83.08526 | 34027 ft | 394 kts | 270° |
| 2026-05-08 02:52 | 40.78294 | -83.15706 | 34028 ft | 395 kts | 270° |
| 2026-05-08 02:53 | 40.78096 | -83.22944 | 34016 ft | 395 kts | 270° |
| 2026-05-08 02:53 | 40.77893 | -83.30191 | 34019 ft | 395 kts | 270° |
| 2026-05-08 02:54 | 40.77686 | -83.37428 | 34018 ft | 395 kts | 270° |
| 2026-05-08 02:54 | 40.77475 | -83.44669 | 34025 ft | 395 kts | 270° |
| 2026-05-08 02:55 | 40.77149 | -83.55524 | 34020 ft | 394 kts | 269° |
| 2026-05-08 02:56 | 40.76926 | -83.62747 | 34015 ft | 394 kts | 269° |
| 2026-05-08 02:56 | 40.76700 | -83.69950 | 34016 ft | 393 kts | 269° |
| 2026-05-08 02:57 | 40.76471 | -83.77091 | 34011 ft | 392 kts | 269° |
| 2026-05-08 02:57 | 40.76237 | -83.84276 | 34011 ft | 391 kts | 269° |
| 2026-05-08 02:58 | 40.75998 | -83.91449 | 34000 ft | 391 kts | 269° |
| 2026-05-08 02:58 | 40.75754 | -83.98628 | 34003 ft | 391 kts | 269° |
| 2026-05-08 02:59 | 40.75506 | -84.05809 | 33994 ft | 392 kts | 269° |
| 2026-05-08 02:59 | 40.75254 | -84.12996 | 34004 ft | 392 kts | 269° |
| 2026-05-08 03:00 | 40.74996 | -84.20187 | 34009 ft | 393 kts | 269° |
| 2026-05-08 03:00 | 40.74735 | -84.27338 | 34019 ft | 394 kts | 269° |
| 2026-05-08 03:01 | 40.74467 | -84.34567 | 34013 ft | 394 kts | 269° |
| 2026-05-08 03:01 | 40.74195 | -84.41803 | 34017 ft | 395 kts | 269° |
| 2026-05-08 03:02 | 40.73808 | -84.49048 | 34017 ft | 396 kts | 268° |
| 2026-05-08 03:02 | 40.73358 | -84.56281 | 34012 ft | 397 kts | 267° |
| 2026-05-08 03:03 | 40.72908 | -84.63527 | 34008 ft | 397 kts | 267° |
| 2026-05-08 03:03 | 40.72465 | -84.70733 | 34000 ft | 397 kts | 268° |
| 2026-05-08 03:04 | 40.72019 | -84.77987 | 34011 ft | 397 kts | 267° |
| 2026-05-08 03:04 | 40.71569 | -84.85250 | 34003 ft | 397 kts | 267° |
| 2026-05-08 03:05 | 40.71114 | -84.92508 | 34001 ft | 397 kts | 267° |
| 2026-05-08 03:05 | 40.70655 | -84.99766 | 34001 ft | 397 kts | 267° |
| 2026-05-08 03:06 | 40.70192 | -85.07021 | 33999 ft | 397 kts | 268° |
| 2026-05-08 03:06 | 40.69723 | -85.14285 | 33998 ft | 398 kts | 267° |
| 2026-05-08 03:07 | 40.69250 | -85.21547 | 33995 ft | 398 kts | 267° |
| 2026-05-08 03:07 | 40.68772 | -85.28809 | 33995 ft | 398 kts | 267° |
| 2026-05-08 03:08 | 40.68289 | -85.36080 | 33999 ft | 398 kts | 267° |
| 2026-05-08 03:08 | 40.67805 | -85.43297 | 33989 ft | 398 kts | 267° |
| 2026-05-08 03:09 | 40.67313 | -85.50563 | 33999 ft | 399 kts | 267° |
| 2026-05-08 03:09 | 40.66815 | -85.57856 | 33996 ft | 400 kts | 267° |
| 2026-05-08 03:10 | 40.66311 | -85.65158 | 33989 ft | 400 kts | 267° |
| 2026-05-08 03:10 | 40.65802 | -85.72465 | 34005 ft | 401 kts | 267° |
| 2026-05-08 03:11 | 40.65288 | -85.79779 | 33994 ft | 401 kts | 267° |
| 2026-05-08 03:11 | 40.64769 | -85.87100 | 33990 ft | 401 kts | 267° |
| 2026-05-08 03:12 | 40.64245 | -85.94412 | 34004 ft | 401 kts | 267° |
| 2026-05-08 03:12 | 40.63721 | -86.01680 | 33998 ft | 401 kts | 267° |
| 2026-05-08 03:13 | 40.63188 | -86.08988 | 33989 ft | 401 kts | 267° |
| 2026-05-08 03:13 | 40.62651 | -86.16295 | 33987 ft | 401 kts | 267° |
| 2026-05-08 03:14 | 40.62110 | -86.23591 | 33993 ft | 401 kts | 267° |
| 2026-05-08 03:14 | 40.61564 | -86.30902 | 34005 ft | 402 kts | 267° |
| 2026-05-08 03:15 | 40.61011 | -86.38233 | 33995 ft | 403 kts | 267° |
| 2026-05-08 03:15 | 40.60453 | -86.45579 | 33996 ft | 404 kts | 267° |
| 2026-05-08 03:16 | 40.59888 | -86.52941 | 34002 ft | 405 kts | 267° |
| 2026-05-08 03:16 | 40.59316 | -86.60325 | 33981 ft | 405 kts | 267° |
| 2026-05-08 03:17 | 40.58740 | -86.67718 | 33986 ft | 406 kts | 267° |
| 2026-05-08 03:17 | 40.58161 | -86.75082 | 33987 ft | 407 kts | 267° |
| 2026-05-08 03:18 | 40.57571 | -86.82503 | 33982 ft | 408 kts | 267° |
| 2026-05-08 03:18 | 40.56976 | -86.89935 | 33997 ft | 408 kts | 267° |
| 2026-05-08 03:19 | 40.56378 | -86.97366 | 33985 ft | 409 kts | 267° |
| 2026-05-08 03:19 | 40.55316 | -87.04736 | 34002 ft | 414 kts | 257° |
| 2026-05-08 03:20 | 40.53223 | -87.11837 | 33996 ft | 420 kts | 250° |
| 2026-05-08 03:20 | 40.50225 | -87.18503 | 33995 ft | 425 kts | 245° |
| 2026-05-08 03:21 | 40.47089 | -87.25034 | 33979 ft | 425 kts | 244° |
| 2026-05-08 03:21 | 40.43944 | -87.31602 | 33943 ft | 424 kts | 244° |
| 2026-05-08 03:22 | 40.40819 | -87.38166 | 33986 ft | 424 kts | 244° |
| 2026-05-08 03:22 | 40.37688 | -87.44752 | 34000 ft | 426 kts | 244° |
| 2026-05-08 03:23 | 40.34544 | -87.51356 | 34005 ft | 428 kts | 244° |
| 2026-05-08 03:23 | 40.31383 | -87.57978 | 34009 ft | 429 kts | 244° |
| 2026-05-08 03:24 | 40.28230 | -87.64570 | 34014 ft | 430 kts | 244° |
| 2026-05-08 03:24 | 40.25049 | -87.71204 | 34003 ft | 430 kts | 244° |
| 2026-05-08 03:25 | 40.21865 | -87.77831 | 33976 ft | 429 kts | 243° |
| 2026-05-08 03:25 | 40.18687 | -87.84430 | 33994 ft | 428 kts | 243° |
| 2026-05-08 03:26 | 40.15511 | -87.91012 | 33997 ft | 427 kts | 243° |
| 2026-05-08 03:26 | 40.12339 | -87.97573 | 33995 ft | 426 kts | 243° |
| 2026-05-08 03:27 | 40.09172 | -88.04112 | 33989 ft | 426 kts | 243° |
| 2026-05-08 03:27 | 40.06001 | -88.10643 | 33977 ft | 426 kts | 243° |
| 2026-05-08 03:28 | 40.02828 | -88.17167 | 34000 ft | 426 kts | 243° |
| 2026-05-08 03:28 | 39.99675 | -88.23631 | 33992 ft | 421 kts | 244° |
| 2026-05-08 03:29 | 39.96563 | -88.29990 | 33997 ft | 413 kts | 244° |
| 2026-05-08 03:29 | 39.93466 | -88.36323 | 33999 ft | 415 kts | 244° |
| 2026-05-08 03:30 | 39.88798 | -88.45844 | 34000 ft | 416 kts | 244° |
| 2026-05-08 03:31 | 39.82547 | -88.58536 | 33998 ft | 416 kts | 244° |
| 2026-05-08 03:32 | 39.77862 | -88.68010 | 33993 ft | 409 kts | 244° |
| 2026-05-08 03:32 | 39.74958 | -88.73860 | 33995 ft | 402 kts | 244° |
| 2026-05-08 03:33 | 39.71924 | -88.79982 | 34000 ft | 403 kts | 244° |
| 2026-05-08 03:33 | 39.68879 | -88.86112 | 33984 ft | 405 kts | 244° |
| 2026-05-08 03:34 | 39.65821 | -88.92251 | 34001 ft | 405 kts | 244° |
| 2026-05-08 03:34 | 39.62755 | -88.98394 | 33999 ft | 406 kts | 244° |
| 2026-05-08 03:35 | 39.59682 | -89.04536 | 34001 ft | 406 kts | 244° |
| 2026-05-08 03:35 | 39.56606 | -89.10672 | 33984 ft | 405 kts | 244° |
| 2026-05-08 03:36 | 39.53544 | -89.16764 | 34002 ft | 402 kts | 244° |
| 2026-05-08 03:36 | 39.50520 | -89.22773 | 34007 ft | 399 kts | 244° |
| 2026-05-08 03:37 | 39.47718 | -89.28333 | 34005 ft | 398 kts | 244° |
| 2026-05-08 03:37 | 39.45207 | -89.33309 | 34009 ft | 396 kts | 244° |
| 2026-05-08 03:38 | 39.41722 | -89.40200 | 34008 ft | 396 kts | 244° |
| 2026-05-08 03:38 | 39.38698 | -89.46169 | 34007 ft | 397 kts | 244° |
| 2026-05-08 03:39 | 39.35667 | -89.52139 | 34002 ft | 398 kts | 244° |
| 2026-05-08 03:39 | 39.32647 | -89.58074 | 33991 ft | 397 kts | 244° |
| 2026-05-08 03:40 | 39.29609 | -89.64034 | 33997 ft | 397 kts | 244° |
| 2026-05-08 03:40 | 39.26572 | -89.69982 | 33997 ft | 397 kts | 244° |
| 2026-05-08 03:41 | 39.23523 | -89.75942 | 33997 ft | 398 kts | 244° |
| 2026-05-08 03:41 | 39.20991 | -89.80883 | 34004 ft | 398 kts | 244° |
| 2026-05-08 03:42 | 39.17933 | -89.86840 | 34005 ft | 398 kts | 244° |
| 2026-05-08 03:42 | 39.14875 | -89.92785 | 34005 ft | 398 kts | 244° |
| 2026-05-08 03:43 | 39.11813 | -89.98728 | 33966 ft | 398 kts | 244° |
| 2026-05-08 03:43 | 39.08750 | -90.04660 | 34001 ft | 397 kts | 243° |
| 2026-05-08 03:44 | 39.05685 | -90.10587 | 34009 ft | 397 kts | 243° |
| 2026-05-08 03:44 | 39.02633 | -90.16478 | 34013 ft | 398 kts | 243° |
| 2026-05-08 03:45 | 38.99558 | -90.22403 | 33999 ft | 399 kts | 243° |
| 2026-05-08 03:45 | 38.96477 | -90.28328 | 34004 ft | 399 kts | 243° |
| 2026-05-08 03:46 | 38.93389 | -90.34254 | 34002 ft | 399 kts | 243° |
| 2026-05-08 03:46 | 38.90291 | -90.40190 | 33992 ft | 399 kts | 243° |
| 2026-05-08 03:47 | 38.87195 | -90.46109 | 33987 ft | 398 kts | 243° |
| 2026-05-08 03:47 | 38.83753 | -90.51701 | 34000 ft | 405 kts | 237° |
| 2026-05-08 03:48 | 38.80006 | -90.57167 | 34014 ft | 405 kts | 237° |
| 2026-05-08 03:48 | 38.76320 | -90.62576 | 34011 ft | 406 kts | 237° |
| 2026-05-08 03:49 | 38.72608 | -90.68019 | 34015 ft | 406 kts | 237° |
| 2026-05-08 03:49 | 38.68894 | -90.73456 | 34010 ft | 405 kts | 237° |
| 2026-05-08 03:50 | 38.65179 | -90.78881 | 33980 ft | 405 kts | 237° |
| 2026-05-08 03:50 | 38.61462 | -90.84291 | 34005 ft | 404 kts | 237° |
| 2026-05-08 03:51 | 38.57751 | -90.89688 | 34019 ft | 404 kts | 237° |
| 2026-05-08 03:51 | 38.54032 | -90.95094 | 34016 ft | 405 kts | 237° |
| 2026-05-08 03:52 | 38.50309 | -91.00497 | 34020 ft | 405 kts | 237° |
| 2026-05-08 03:52 | 38.46582 | -91.05896 | 34020 ft | 405 kts | 237° |
| 2026-05-08 03:53 | 38.42850 | -91.11293 | 34020 ft | 406 kts | 237° |
| 2026-05-08 03:53 | 38.39110 | -91.16692 | 34042 ft | 406 kts | 236° |
| 2026-05-08 03:54 | 38.35369 | -91.22083 | 34062 ft | 406 kts | 236° |
| 2026-05-08 03:54 | 38.31620 | -91.27476 | 34057 ft | 407 kts | 236° |
| 2026-05-08 03:55 | 38.27894 | -91.32827 | 34061 ft | 407 kts | 236° |
| 2026-05-08 03:55 | 38.24115 | -91.38246 | 34050 ft | 407 kts | 236° |
| 2026-05-08 03:56 | 38.20377 | -91.43596 | 34051 ft | 407 kts | 236° |
| 2026-05-08 03:56 | 38.16615 | -91.48972 | 34011 ft | 406 kts | 236° |
| 2026-05-08 03:57 | 38.12859 | -91.54329 | 34026 ft | 406 kts | 236° |
| 2026-05-08 03:57 | 38.09101 | -91.59681 | 34036 ft | 406 kts | 236° |
| 2026-05-08 03:58 | 38.05337 | -91.65034 | 34035 ft | 406 kts | 236° |
| 2026-05-08 03:58 | 38.01572 | -91.70378 | 34037 ft | 407 kts | 236° |
| 2026-05-08 03:59 | 37.97801 | -91.75722 | 34042 ft | 407 kts | 236° |
| 2026-05-08 03:59 | 37.94024 | -91.81066 | 34021 ft | 407 kts | 236° |
| 2026-05-08 04:00 | 37.90246 | -91.86400 | 34017 ft | 406 kts | 236° |
| 2026-05-08 04:00 | 37.86474 | -91.91718 | 34003 ft | 405 kts | 235° |
| 2026-05-08 04:01 | 37.82704 | -91.97023 | 34025 ft | 405 kts | 235° |
| 2026-05-08 04:01 | 37.78956 | -92.02292 | 34029 ft | 405 kts | 235° |
| 2026-05-08 04:02 | 37.75178 | -92.07594 | 34022 ft | 406 kts | 235° |
| 2026-05-08 04:02 | 37.71399 | -92.12887 | 34030 ft | 406 kts | 235° |
| 2026-05-08 04:03 | 37.67613 | -92.18180 | 34025 ft | 405 kts | 235° |
| 2026-05-08 04:03 | 37.61946 | -92.26089 | 34021 ft | 404 kts | 235° |
| 2026-05-08 04:04 | 37.58174 | -92.31343 | 34016 ft | 404 kts | 235° |
| 2026-05-08 04:04 | 37.54401 | -92.36590 | 34041 ft | 404 kts | 235° |
| 2026-05-08 04:05 | 37.50620 | -92.41838 | 34039 ft | 405 kts | 235° |
| 2026-05-08 04:05 | 37.46833 | -92.47086 | 34042 ft | 405 kts | 235° |
| 2026-05-08 04:06 | 37.43070 | -92.52293 | 34045 ft | 403 kts | 235° |
| 2026-05-08 04:06 | 37.39299 | -92.57501 | 34042 ft | 402 kts | 235° |
| 2026-05-08 04:07 | 37.35533 | -92.62694 | 34036 ft | 401 kts | 235° |
| 2026-05-08 04:07 | 37.31774 | -92.67871 | 33999 ft | 401 kts | 235° |
| 2026-05-08 04:08 | 37.28016 | -92.73039 | 34020 ft | 400 kts | 235° |
| 2026-05-08 04:08 | 37.24257 | -92.78199 | 34031 ft | 401 kts | 235° |
| 2026-05-08 04:09 | 37.20482 | -92.83374 | 34034 ft | 402 kts | 235° |
| 2026-05-08 04:09 | 37.16732 | -92.88502 | 34019 ft | 400 kts | 235° |
| 2026-05-08 04:10 | 37.12970 | -92.93641 | 34026 ft | 399 kts | 235° |
| 2026-05-08 04:10 | 37.09209 | -92.98770 | 34029 ft | 399 kts | 235° |
| 2026-05-08 04:11 | 37.05454 | -93.03885 | 34028 ft | 398 kts | 235° |
| 2026-05-08 04:11 | 37.01700 | -93.08989 | 34019 ft | 398 kts | 235° |
| 2026-05-08 04:12 | 36.97945 | -93.14086 | 34033 ft | 398 kts | 234° |
| 2026-05-08 04:12 | 36.94211 | -93.19149 | 34000 ft | 398 kts | 234° |
| 2026-05-08 04:13 | 36.90455 | -93.24230 | 34032 ft | 398 kts | 234° |
| 2026-05-08 04:13 | 36.86697 | -93.29307 | 34047 ft | 398 kts | 234° |
| 2026-05-08 04:14 | 36.82942 | -93.34373 | 34049 ft | 398 kts | 234° |
| 2026-05-08 04:14 | 36.79180 | -93.39441 | 34054 ft | 398 kts | 234° |
| 2026-05-08 04:15 | 36.75417 | -93.44501 | 34058 ft | 397 kts | 234° |
| 2026-05-08 04:15 | 36.71657 | -93.49552 | 34058 ft | 398 kts | 234° |
| 2026-05-08 04:16 | 36.67889 | -93.54604 | 34020 ft | 397 kts | 234° |
| 2026-05-08 04:16 | 36.64128 | -93.59636 | 34042 ft | 396 kts | 234° |
| 2026-05-08 04:17 | 36.60370 | -93.64661 | 34048 ft | 396 kts | 234° |
| 2026-05-08 04:17 | 36.56619 | -93.69667 | 34042 ft | 396 kts | 234° |
| 2026-05-08 04:18 | 36.52888 | -93.74639 | 34040 ft | 395 kts | 234° |
| 2026-05-08 04:18 | 36.49134 | -93.79633 | 34057 ft | 395 kts | 234° |
| 2026-05-08 04:19 | 36.45375 | -93.84628 | 34059 ft | 396 kts | 234° |
| 2026-05-08 04:19 | 36.41618 | -93.89612 | 34063 ft | 395 kts | 234° |
| 2026-05-08 04:20 | 36.37863 | -93.94586 | 34078 ft | 394 kts | 234° |
| 2026-05-08 04:20 | 36.34104 | -93.99559 | 34081 ft | 395 kts | 234° |
| 2026-05-08 04:21 | 36.30346 | -94.04524 | 34080 ft | 395 kts | 234° |
| 2026-05-08 04:21 | 36.26586 | -94.09480 | 34054 ft | 395 kts | 234° |
| 2026-05-08 04:22 | 36.22506 | -94.14117 | 34055 ft | 403 kts | 227° |
| 2026-05-08 04:22 | 36.18018 | -94.18307 | 34052 ft | 404 kts | 226° |
| 2026-05-08 04:23 | 36.13551 | -94.22493 | 34048 ft | 402 kts | 226° |
| 2026-05-08 04:23 | 36.09100 | -94.26669 | 34071 ft | 401 kts | 226° |
| 2026-05-08 04:24 | 36.04691 | -94.30804 | 34076 ft | 400 kts | 226° |
| 2026-05-08 04:24 | 36.00254 | -94.34960 | 34068 ft | 400 kts | 226° |
| 2026-05-08 04:25 | 35.95822 | -94.39106 | 34070 ft | 400 kts | 226° |
| 2026-05-08 04:25 | 35.91391 | -94.43245 | 34064 ft | 400 kts | 226° |
| 2026-05-08 04:26 | 35.86954 | -94.47382 | 34061 ft | 400 kts | 226° |
| 2026-05-08 04:26 | 35.82514 | -94.51515 | 34044 ft | 400 kts | 226° |
| 2026-05-08 04:27 | 35.78072 | -94.55646 | 34057 ft | 400 kts | 226° |
| 2026-05-08 04:27 | 35.73621 | -94.59780 | 34048 ft | 401 kts | 226° |
| 2026-05-08 04:28 | 35.69914 | -94.63218 | 34057 ft | 402 kts | 226° |
| 2026-05-08 04:28 | 35.65438 | -94.67363 | 33991 ft | 402 kts | 226° |
| 2026-05-08 04:29 | 35.60977 | -94.71483 | 34042 ft | 401 kts | 226° |
| 2026-05-08 04:29 | 35.56523 | -94.75595 | 34058 ft | 400 kts | 226° |
| 2026-05-08 04:30 | 35.52072 | -94.79702 | 34053 ft | 400 kts | 226° |
| 2026-05-08 04:30 | 35.47617 | -94.83804 | 34050 ft | 400 kts | 226° |
| 2026-05-08 04:31 | 35.43196 | -94.87868 | 34055 ft | 399 kts | 226° |
| 2026-05-08 04:31 | 35.38751 | -94.91950 | 34029 ft | 399 kts | 225° |
| 2026-05-08 04:32 | 35.34307 | -94.96024 | 34032 ft | 399 kts | 225° |
| 2026-05-08 04:32 | 35.29862 | -95.00094 | 34035 ft | 399 kts | 225° |
| 2026-05-08 04:33 | 35.25416 | -95.04160 | 34033 ft | 399 kts | 225° |
| 2026-05-08 04:33 | 35.20962 | -95.08227 | 34044 ft | 400 kts | 225° |
| 2026-05-08 04:34 | 35.16503 | -95.12292 | 34041 ft | 401 kts | 225° |
| 2026-05-08 04:34 | 35.12034 | -95.16362 | 34021 ft | 400 kts | 225° |
| 2026-05-08 04:35 | 35.07562 | -95.20426 | 34044 ft | 400 kts | 225° |
| 2026-05-08 04:35 | 35.03093 | -95.24484 | 34045 ft | 400 kts | 225° |
| 2026-05-08 04:36 | 34.98628 | -95.28532 | 34046 ft | 400 kts | 225° |
| 2026-05-08 04:36 | 34.94158 | -95.32578 | 34050 ft | 400 kts | 224° |
| 2026-05-08 04:37 | 34.89685 | -95.36623 | 34040 ft | 400 kts | 224° |
| 2026-05-08 04:37 | 34.85210 | -95.40663 | 34038 ft | 400 kts | 224° |
| 2026-05-08 04:38 | 34.80764 | -95.44672 | 34040 ft | 400 kts | 224° |
| 2026-05-08 04:38 | 34.76284 | -95.48706 | 34043 ft | 400 kts | 224° |
| 2026-05-08 04:39 | 34.71796 | -95.52741 | 34045 ft | 400 kts | 224° |
| 2026-05-08 04:39 | 34.67310 | -95.56769 | 34055 ft | 401 kts | 224° |
| 2026-05-08 04:40 | 34.62820 | -95.60796 | 34046 ft | 401 kts | 224° |
| 2026-05-08 04:40 | 34.58333 | -95.64813 | 34039 ft | 400 kts | 224° |
| 2026-05-08 04:41 | 34.53882 | -95.68794 | 34048 ft | 400 kts | 224° |
| 2026-05-08 04:41 | 34.49389 | -95.72807 | 34049 ft | 401 kts | 223° |
| 2026-05-08 04:42 | 34.44896 | -95.76813 | 34070 ft | 401 kts | 223° |
| 2026-05-08 04:42 | 34.40397 | -95.80822 | 34060 ft | 401 kts | 223° |
| 2026-05-08 04:43 | 34.35897 | -95.84825 | 34060 ft | 402 kts | 223° |
| 2026-05-08 04:43 | 34.31303 | -95.88768 | 33229 ft | 420 kts | 216° |
| 2026-05-08 04:44 | 34.28663 | -95.90293 | 32407 ft | 425 kts | 213° |
| 2026-05-08 04:44 | 34.25953 | -95.91743 | 31517 ft | 426 kts | 213° |
| 2026-05-08 04:44 | 34.23247 | -95.93173 | 30823 ft | 423 kts | 213° |
| 2026-05-08 04:44 | 34.20943 | -95.94401 | 30222 ft | 421 kts | 214° |
| 2026-05-08 04:45 | 34.18277 | -95.95842 | 29454 ft | 419 kts | 214° |
| 2026-05-08 04:45 | 34.15634 | -95.97286 | 28739 ft | 416 kts | 214° |
| 2026-05-08 04:45 | 34.13040 | -95.98711 | 28090 ft | 413 kts | 214° |
| 2026-05-08 04:45 | 34.10433 | -96.00147 | 27446 ft | 410 kts | 214° |
| 2026-05-08 04:46 | 34.07844 | -96.01574 | 26836 ft | 408 kts | 213° |
| 2026-05-08 04:46 | 34.05266 | -96.02994 | 26197 ft | 406 kts | 213° |
| 2026-05-08 04:46 | 34.02702 | -96.04405 | 25616 ft | 404 kts | 213° |
| 2026-05-08 04:46 | 34.00147 | -96.05810 | 25034 ft | 403 kts | 212° |
| 2026-05-08 04:47 | 33.97598 | -96.07211 | 24452 ft | 403 kts | 212° |
| 2026-05-08 04:47 | 33.95049 | -96.08610 | 23869 ft | 403 kts | 212° |
| 2026-05-08 04:47 | 33.92494 | -96.10016 | 23212 ft | 403 kts | 212° |
| 2026-05-08 04:47 | 33.90136 | -96.11733 | 22574 ft | 391 kts | 225° |
| 2026-05-08 04:48 | 33.88487 | -96.13489 | 22118 ft | 385 kts | 228° |
| 2026-05-08 04:48 | 33.86535 | -96.15657 | 21554 ft | 383 kts | 227° |
| 2026-05-08 04:48 | 33.84575 | -96.17817 | 21002 ft | 381 kts | 227° |
| 2026-05-08 04:48 | 33.82610 | -96.19951 | 20464 ft | 379 kts | 226° |
| 2026-05-08 04:49 | 33.80645 | -96.22061 | 19940 ft | 377 kts | 226° |
| 2026-05-08 04:49 | 33.78706 | -96.24129 | 19383 ft | 375 kts | 226° |
| 2026-05-08 04:49 | 33.76761 | -96.26194 | 18866 ft | 373 kts | 225° |
| 2026-05-08 04:49 | 33.74839 | -96.28230 | 18313 ft | 372 kts | 225° |
| 2026-05-08 04:50 | 33.73044 | -96.30130 | 17760 ft | 371 kts | 225° |
| 2026-05-08 04:50 | 33.71117 | -96.32168 | 17216 ft | 368 kts | 225° |
| 2026-05-08 04:50 | 33.69197 | -96.34199 | 16678 ft | 366 kts | 225° |
| 2026-05-08 04:50 | 33.67298 | -96.36206 | 16167 ft | 364 kts | 225° |
| 2026-05-08 04:51 | 33.65407 | -96.38203 | 15655 ft | 363 kts | 225° |
| 2026-05-08 04:51 | 33.63514 | -96.40200 | 15145 ft | 362 kts | 225° |
| 2026-05-08 04:51 | 33.61654 | -96.42161 | 14643 ft | 361 kts | 225° |
| 2026-05-08 04:51 | 33.59766 | -96.44149 | 14136 ft | 361 kts | 225° |
| 2026-05-08 04:52 | 33.57885 | -96.46131 | 13578 ft | 362 kts | 225° |
| 2026-05-08 04:52 | 33.55989 | -96.48128 | 13042 ft | 362 kts | 224° |
| 2026-05-08 04:52 | 33.54608 | -96.49582 | 12650 ft | 361 kts | 224° |
| 2026-05-08 04:52 | 33.53528 | -96.50718 | 12354 ft | 361 kts | 224° |
| 2026-05-08 04:53 | 33.51643 | -96.52701 | 11849 ft | 360 kts | 224° |
| 2026-05-08 04:53 | 33.49765 | -96.54675 | 11367 ft | 358 kts | 224° |
| 2026-05-08 04:53 | 33.47922 | -96.56607 | 11238 ft | 347 kts | 223° |
| 2026-05-08 04:53 | 33.46293 | -96.58611 | 11057 ft | 328 kts | 238° |
| 2026-05-08 04:54 | 33.45352 | -96.61036 | 10907 ft | 317 kts | 253° |
| 2026-05-08 04:54 | 33.44964 | -96.63583 | 10709 ft | 306 kts | 266° |
| 2026-05-08 04:54 | 33.44945 | -96.66053 | 10535 ft | 296 kts | 269° |
| 2026-05-08 04:54 | 33.44969 | -96.68461 | 10417 ft | 283 kts | 269° |
| 2026-05-08 04:55 | 33.44995 | -96.70767 | 10310 ft | 271 kts | 269° |
| 2026-05-08 04:55 | 33.45016 | -96.73011 | 10247 ft | 270 kts | 269° |
| 2026-05-08 04:55 | 33.45032 | -96.75223 | 10146 ft | 261 kts | 269° |
| 2026-05-08 04:55 | 33.45045 | -96.77383 | 9861 ft | 259 kts | 269° |
| 2026-05-08 04:56 | 33.45053 | -96.79544 | 9577 ft | 261 kts | 269° |
| 2026-05-08 04:56 | 33.45060 | -96.81723 | 9414 ft | 263 kts | 269° |
| 2026-05-08 04:56 | 33.45065 | -96.83935 | 9297 ft | 268 kts | 269° |
| 2026-05-08 04:56 | 33.45068 | -96.86187 | 9203 ft | 273 kts | 269° |
| 2026-05-08 04:57 | 33.45008 | -96.88442 | 8910 ft | 270 kts | 258° |
| 2026-05-08 04:57 | 33.44223 | -96.90443 | 8521 ft | 263 kts | 235° |
| 2026-05-08 04:57 | 33.43173 | -96.92211 | 8292 ft | 258 kts | 236° |
| 2026-05-08 04:57 | 33.42165 | -96.93971 | 8099 ft | 255 kts | 237° |
| 2026-05-08 04:58 | 33.41174 | -96.95723 | 7929 ft | 254 kts | 237° |
| 2026-05-08 04:58 | 33.40187 | -96.97479 | 7760 ft | 255 kts | 237° |
| 2026-05-08 04:58 | 33.39199 | -96.99245 | 7590 ft | 255 kts | 237° |
| 2026-05-08 04:58 | 33.38214 | -97.01012 | 7402 ft | 256 kts | 237° |
| 2026-05-08 04:59 | 33.37228 | -97.02782 | 7243 ft | 256 kts | 237° |
| 2026-05-08 04:59 | 33.36243 | -97.04554 | 7061 ft | 256 kts | 237° |
| 2026-05-08 04:59 | 33.35256 | -97.06332 | 6894 ft | 257 kts | 237° |
| 2026-05-08 04:59 | 33.34269 | -97.08111 | 6726 ft | 257 kts | 237° |
| 2026-05-08 05:00 | 33.33279 | -97.09894 | 6556 ft | 257 kts | 237° |
| 2026-05-08 05:00 | 33.32301 | -97.11654 | 6363 ft | 250 kts | 237° |
| 2026-05-08 05:00 | 33.31359 | -97.13351 | 6186 ft | 239 kts | 237° |
| 2026-05-08 05:00 | 33.30456 | -97.14977 | 6015 ft | 234 kts | 237° |
| 2026-05-08 05:01 | 33.29553 | -97.16604 | 5880 ft | 236 kts | 236° |
| 2026-05-08 05:01 | 33.28648 | -97.18233 | 5718 ft | 235 kts | 236° |
| 2026-05-08 05:01 | 33.27761 | -97.19828 | 5593 ft | 224 kts | 236° |
| 2026-05-08 05:01 | 33.26921 | -97.21339 | 5429 ft | 214 kts | 236° |
| 2026-05-08 05:02 | 33.26105 | -97.22806 | 5274 ft | 213 kts | 236° |
| 2026-05-08 05:02 | 33.25291 | -97.24269 | 5135 ft | 214 kts | 236° |
| 2026-05-08 05:02 | 33.24472 | -97.25740 | 4981 ft | 209 kts | 236° |
| 2026-05-08 05:02 | 33.23688 | -97.27150 | 4828 ft | 198 kts | 236° |
| 2026-05-08 05:03 | 33.22931 | -97.28508 | 4692 ft | 197 kts | 235° |
| 2026-05-08 05:03 | 33.22169 | -97.29874 | 4570 ft | 198 kts | 235° |
| 2026-05-08 05:03 | 33.21409 | -97.31237 | 4432 ft | 197 kts | 235° |
| 2026-05-08 05:03 | 33.20651 | -97.32594 | 4298 ft | 196 kts | 235° |
| 2026-05-08 05:04 | 33.19894 | -97.33948 | 4166 ft | 195 kts | 233° |
| 2026-05-08 05:04 | 33.18885 | -97.34950 | 4063 ft | 191 kts | 196° |
| 2026-05-08 05:04 | 33.17567 | -97.35127 | 4028 ft | 194 kts | 181° |
| 2026-05-08 05:04 | 33.16192 | -97.35095 | 3773 ft | 199 kts | 178° |
| 2026-05-08 05:05 | 33.14818 | -97.35008 | 3518 ft | 192 kts | 175° |
| 2026-05-08 05:05 | 33.13551 | -97.34818 | 3307 ft | 176 kts | 171° |
| 2026-05-08 05:05 | 33.12383 | -97.34587 | 3052 ft | 167 kts | 171° |
| 2026-05-08 05:05 | 33.11266 | -97.34358 | 2830 ft | 158 kts | 170° |
| 2026-05-08 05:06 | 33.10223 | -97.34142 | 2649 ft | 148 kts | 170° |
| 2026-05-08 05:06 | 33.09213 | -97.33927 | 2471 ft | 149 kts | 170° |
| 2026-05-08 05:06 | 33.08213 | -97.33720 | 2267 ft | 147 kts | 171° |
| 2026-05-08 05:06 | 33.07209 | -97.33520 | 2071 ft | 144 kts | 171° |
| 2026-05-08 05:07 | 33.06221 | -97.33312 | 1877 ft | 145 kts | 171° |
| 2026-05-08 05:07 | 33.05233 | -97.33109 | 1682 ft | 144 kts | 172° |
| 2026-05-08 05:07 | 33.04238 | -97.32916 | 1498 ft | 146 kts | 171° |
| 2026-05-08 05:07 | 33.03221 | -97.32702 | 1307 ft | 150 kts | 171° |
| 2026-05-08 05:08 | 33.02189 | -97.32495 | 1095 ft | 150 kts | 171° |
| 2026-05-08 05:08 | 33.01164 | -97.32282 | 872 ft | 148 kts | 170° |
| 2026-05-08 05:08 | 33.00153 | -97.32073 | 721 ft | 148 kts | 169° |
| 2026-05-08 05:08 | 32.99225 | -97.31884 | 691 ft | 116 kts | 170° |
| 2026-05-08 05:09 | 32.98608 | -97.31756 | 691 ft | 63 kts | 170° |
| 2026-05-08 05:09 | 32.98267 | -97.31686 | 693 ft | 30 kts | 171° |
| 2026-05-08 05:09 | 32.98132 | -97.31614 | 686 ft | 16 kts | 105° |
| 2026-05-08 05:09 | 32.98170 | -97.31543 | 691 ft | 11 kts | 2° |
| 2026-05-08 05:10 | 32.98245 | -97.31552 | 690 ft | 11 kts | 351° |
| 2026-05-08 05:10 | 32.98394 | -97.31581 | 690 ft | 11 kts | 351° |
| 2026-05-08 05:10 | 32.98468 | -97.31596 | 688 ft | 11 kts | 351° |
| 2026-05-08 05:11 | 32.98542 | -97.31611 | 686 ft | 11 kts | 349° |
| 2026-05-08 05:11 | 32.98628 | -97.31630 | 690 ft | 13 kts | 349° |
| 2026-05-08 05:11 | 32.98718 | -97.31650 | 691 ft | 13 kts | 349° |
| 2026-05-08 05:11 | 32.98806 | -97.31668 | 688 ft | 13 kts | 350° |
| 2026-05-08 05:12 | 32.98896 | -97.31687 | 690 ft | 13 kts | 350° |
| 2026-05-08 05:12 | 32.98986 | -97.31703 | 686 ft | 13 kts | 351° |
| 2026-05-08 05:12 | 32.99076 | -97.31721 | 686 ft | 13 kts | 350° |
| 2026-05-08 05:12 | 32.99165 | -97.31739 | 690 ft | 13 kts | 350° |
| 2026-05-08 05:13 | 32.99249 | -97.31726 | 688 ft | 13 kts | 53° |
| 2026-05-08 05:13 | 32.99269 | -97.31621 | 693 ft | 13 kts | 81° |
| 2026-05-08 05:13 | 32.99319 | -97.31546 | 686 ft | 13 kts | 1° |
| 2026-05-08 05:13 | 32.99408 | -97.31563 | 688 ft | 13 kts | 350° |
| 2026-05-08 05:14 | 32.99498 | -97.31581 | 690 ft | 13 kts | 350° |
| 2026-05-08 05:14 | 32.99588 | -97.31600 | 690 ft | 13 kts | 350° |
| 2026-05-08 05:14 | 32.99677 | -97.31618 | 691 ft | 12 kts | 350° |
| 2026-05-08 05:14 | 32.99722 | -97.31627 | 688 ft | 2 kts | 350° |
| 2026-05-08 05:15 | 32.99730 | -97.31629 | 695 ft | 1 kts | 351° |
| 2026-05-08 05:15 | 32.99733 | -97.31630 | 695 ft | 0 kts | 351° |